Hardin, Arkansas
Current Conditions -  °F | °C
As of 7:53 PM on Wednesday 17 Dec 2014 (Local Time) from KPBF Reporting Station
Overcast Overcast  
Wind Chill: 35°   Ceiling: 8000
Heat Index: 41°   Visibility: 10mi
Dew Point: 33°   Wind: 10mph
Humidity: 73%   Direction: 60°ENE
Pressure: 30.22"   Gusts: NA
Location:  34.193°N, 91.9403°W
Report Text: KPBF 180153Z AUTO 06009KT 10SM OVC080 05/01 A3022 RMK AO2 PRESFR SLP233 T00500006
Loading
Personal Weather Stations






























Interactive Weather Map New forecast layout! Learn more

10-Day Weather Forecast

Advertisements
Track Severe Weather on mobile